Time;durP1;ratioP1;P1;durP2;ratioP2;P2;SDS_P1;SDS_P2;PMS_P1;PMS_P2;Temp;Humidity;BMP_temperature;BMP_pressure;BME280_temperature;BME280_humidity;BME280_pressure;Samples;Min_cycle;Max_cycle;Signal;HPM_P1;HPM_P2
2023/08/28 00:01:11;;;;;;;3.53;1.30;;;;;;;;;;5006360;28;92788;-85
2023/08/28 00:03:40;;;;;;;2.22;1.13;;;;;;;;;;5006706;28;91665;-85
2023/08/28 00:06:07;;;;;;;2.78;1.05;;;;;;;;;;4998643;28;92435;-85
2023/08/28 00:08:34;;;;;;;2.08;1.08;;;;;;;;;;5013067;28;92774;-85
2023/08/28 00:11:02;;;;;;;;;;;;;;;;;;5006651;28;94811;-85
2023/08/28 00:13:28;;;;;;;2.13;1.10;;;;;;;;;;4995523;28;92458;-85
2023/08/28 00:15:55;;;;;;;3.50;1.40;;;;;;;;;;5001390;28;92992;-85
2023/08/28 00:18:22;;;;;;;9.07;1.60;;;;;;;;;;5013671;28;92753;-86
2023/08/28 00:20:48;;;;;;;3.88;1.30;;;;;;;;;;5005094;28;93279;-85
2023/08/28 00:23:15;;;;;;;5.43;1.30;;;;;;;;;;4972936;28;93815;-86
2023/08/28 00:25:41;;;;;;;5.88;1.30;;;;;;;;;;4973241;28;92633;-85
2023/08/28 00:28:08;;;;;;;3.28;1.30;;;;;;;;;;4990492;28;92879;-85
2023/08/28 00:30:34;;;;;;;7.22;1.27;;;;;;;;;;4978819;28;95855;-84
2023/08/28 00:33:01;;;;;;;4.13;1.30;;;;;;;;;;4990270;28;92398;-84
2023/08/28 00:35:28;;;;;;;3.45;1.08;;;;;;;;;;4978039;28;95237;-84
2023/08/28 00:37:55;;;;;;;3.65;1.17;;;;;;;;;;4975762;28;95789;-85
2023/08/28 00:40:22;;;;;;;4.57;1.20;;;;;;;;;;4973563;28;92494;-84
2023/08/28 00:42:48;;;;;;;4.45;1.20;;;;;;;;;;4996195;28;94261;-83
2023/08/28 00:45:15;;;;;;;4.30;1.17;;;;;;;;;;4989373;28;92795;-83
2023/08/28 00:47:44;;;;;;;2.50;1.10;;;;;;;;;;4978159;28;95934;-83
2023/08/28 00:50:10;;;;;;;2.63;1.00;;;;;;;;;;4974551;28;95336;-83
2023/08/28 00:52:37;;;;;;;3.78;1.10;;;;;;;;;;4990526;28;91757;-82
2023/08/28 00:55:04;;;;;;;3.28;1.27;;;;;;;;;;4994703;28;92512;-83
2023/08/28 00:57:31;;;;;;;4.18;1.30;;;;;;;;;;4989895;28;94885;-83
2023/08/28 00:59:59;;;;;;;2.60;1.02;;;;;;;;;;5005910;28;94875;-83
2023/08/28 01:02:26;;;;;;;3.38;1.23;;;;;;;;;;4985644;28;94837;-83
2023/08/28 01:04:53;;;;;;;3.55;1.20;;;;;;;;;;4989349;28;93069;-84
2023/08/28 01:07:20;;;;;;;;;;;;;;;;;;4982115;28;95977;-84
2023/08/28 01:09:59;;;;;;;3.33;1.10;;;;;;;;;;4977005;28;95882;-84
2023/08/28 01:12:33;;;;;;;4.95;1.25;;;;;;;;;;4989196;28;92970;-84
2023/08/28 01:15:07;;;;;;;3.20;1.00;;;;;;;;;;4958998;28;95907;-83
2023/08/28 01:17:35;;;;;;;3.17;1.30;;;;;;;;;;4978771;28;95499;-83
2023/08/28 01:20:04;;;;;;;4.13;1.20;;;;;;;;;;4992335;28;92452;-83
2023/08/28 01:22:35;;;;;;;3.60;1.20;;;;;;;;;;4983516;28;95792;-84
2023/08/28 01:25:10;;;;;;;3.45;1.00;;;;;;;;;;4993839;28;95422;-84
2023/08/28 01:27:37;;;;;;;2.40;1.08;;;;;;;;;;4993269;28;95209;-84
2023/08/28 01:30:05;;;;;;;2.17;1.10;;;;;;;;;;4980421;28;95654;-84
2023/08/28 01:32:34;;;;;;;3.35;1.13;;;;;;;;;;4992342;28;92407;-84
2023/08/28 01:35:01;;;;;;;3.20;1.00;;;;;;;;;;4979287;28;94030;-83
2023/08/28 01:37:33;;;;;;;2.40;1.08;;;;;;;;;;4981968;28;93315;-84
2023/08/28 01:40:05;;;;;;;5.22;1.45;;;;;;;;;;4976155;28;92965;-84
2023/08/28 01:42:33;;;;;;;3.25;1.20;;;;;;;;;;4984552;28;95162;-84
2023/08/28 01:45:00;;;;;;;5.25;1.20;;;;;;;;;;4978554;28;94042;-83
2023/08/28 01:47:27;;;;;;;3.47;1.10;;;;;;;;;;4995038;28;92500;-84
2023/08/28 01:49:54;;;;;;;2.60;1.05;;;;;;;;;;4958155;28;96846;-84
2023/08/28 01:52:20;;;;;;;4.50;1.40;;;;;;;;;;4976984;28;92555;-85
2023/08/28 01:54:47;;;;;;;6.18;1.30;;;;;;;;;;4976327;28;95237;-85
2023/08/28 01:57:13;;;;;;;8.77;1.52;;;;;;;;;;4992313;28;94050;-85
2023/08/28 01:59:40;;;;;;;4.10;1.13;;;;;;;;;;4966525;28;92696;-86
2023/08/28 02:02:07;;;;;;;3.17;1.00;;;;;;;;;;4957862;28;95386;-86
2023/08/28 02:04:34;;;;;;;3.53;1.20;;;;;;;;;;4990887;28;95206;-86
2023/08/28 02:07:01;;;;;;;3.20;1.13;;;;;;;;;;4974039;28;91766;-86
2023/08/28 02:09:27;;;;;;;3.08;1.25;;;;;;;;;;4979366;28;95151;-86
2023/08/28 02:11:54;;;;;;;3.25;1.13;;;;;;;;;;4982150;28;92670;-84
2023/08/28 02:14:20;;;;;;;3.92;1.10;;;;;;;;;;4958328;28;96154;-86
2023/08/28 02:16:47;;;;;;;3.60;1.00;;;;;;;;;;4979465;28;95965;-86
2023/08/28 02:19:14;;;;;;;2.65;1.20;;;;;;;;;;4975058;28;92539;-84
2023/08/28 02:21:40;;;;;;;6.22;1.23;;;;;;;;;;4976972;28;95904;-83
2023/08/28 02:24:07;;;;;;;2.95;1.10;;;;;;;;;;4960108;28;95560;-84
2023/08/28 02:26:33;;;;;;;3.42;1.20;;;;;;;;;;4991580;28;92891;-84
2023/08/28 02:29:00;;;;;;;1.70;1.10;;;;;;;;;;4966053;28;94043;-84
2023/08/28 02:31:26;;;;;;;2.40;1.00;;;;;;;;;;4996479;28;92829;-83
2023/08/28 02:33:53;;;;;;;2.95;1.10;;;;;;;;;;4977022;28;94241;-84
2023/08/28 02:36:19;;;;;;;3.45;1.20;;;;;;;;;;4979724;28;95834;-83
2023/08/28 02:38:46;;;;;;;4.55;1.25;;;;;;;;;;4983080;28;95051;-83
2023/08/28 02:41:12;;;;;;;2.25;1.02;;;;;;;;;;4990665;28;95356;-83
2023/08/28 02:43:39;;;;;;;4.88;1.30;;;;;;;;;;4974262;28;95444;-83
2023/08/28 02:46:06;;;;;;;3.10;1.20;;;;;;;;;;4989734;28;92712;-82
2023/08/28 02:48:34;;;;;;;3.80;1.10;;;;;;;;;;4976372;28;92852;-83
2023/08/28 02:51:01;;;;;;;2.72;1.20;;;;;;;;;;4974835;28;96411;-83
2023/08/28 02:53:27;;;;;;;2.30;1.00;;;;;;;;;;4969291;28;92556;-83
2023/08/28 02:56:13;;;;;;;5.18;1.13;;;;;;;;;;4990374;28;92608;-82
2023/08/28 02:58:40;;;;;;;2.20;1.20;;;;;;;;;;4992138;28;92556;-83
2023/08/28 03:01:06;;;;;;;3.03;1.10;;;;;;;;;;4982141;28;93250;-82
2023/08/28 03:03:34;;;;;;;4.25;1.40;;;;;;;;;;4989206;28;96596;-82
2023/08/28 03:06:01;;;;;;;2.78;1.13;;;;;;;;;;4992456;28;93194;-82
2023/08/28 03:08:28;;;;;;;;;;;;;;;;;;5002845;28;93950;-82
2023/08/28 03:10:54;;;;;;;4.30;1.40;;;;;;;;;;5008247;28;101308;-82
2023/08/28 03:13:21;;;;;;;3.67;1.08;;;;;;;;;;4978381;28;93079;-83
2023/08/28 03:15:47;;;;;;;2.03;1.10;;;;;;;;;;4990041;28;93619;-82
2023/08/28 03:18:14;;;;;;;2.15;1.10;;;;;;;;;;4973086;28;92586;-83
2023/08/28 03:20:41;;;;;;;3.15;1.23;;;;;;;;;;4991174;28;92719;-83
2023/08/28 03:23:09;;;;;;;3.40;1.13;;;;;;;;;;4991541;28;92882;-83
2023/08/28 03:25:36;;;;;;;2.65;1.23;;;;;;;;;;4978650;28;92489;-83
2023/08/28 03:28:07;;;;;;;2.22;1.08;;;;;;;;;;4998958;28;94891;-83
2023/08/28 03:30:34;;;;;;;2.35;1.00;;;;;;;;;;4991388;28;94717;-83
2023/08/28 03:33:00;;;;;;;4.80;1.23;;;;;;;;;;5003389;28;92348;-83
2023/08/28 03:35:29;;;;;;;4.10;1.10;;;;;;;;;;5008600;28;92319;-83
2023/08/28 03:37:56;;;;;;;1.85;1.15;;;;;;;;;;4999227;28;92544;-83
2023/08/28 03:40:22;;;;;;;3.70;1.20;;;;;;;;;;4990629;28;94616;-83
2023/08/28 03:42:49;;;;;;;3.60;1.33;;;;;;;;;;4992660;28;94853;-83
2023/08/28 03:45:16;;;;;;;2.90;1.15;;;;;;;;;;4997568;28;92141;-83
2023/08/28 03:47:43;;;;;;;;;;;;;;;;;;5006634;28;92503;-83
2023/08/28 03:50:09;;;;;;;3.58;1.10;;;;;;;;;;5006487;28;92429;-83
2023/08/28 03:52:36;;;;;;;2.03;1.00;;;;;;;;;;4991588;28;94806;-83
2023/08/28 03:55:03;;;;;;;2.75;1.25;;;;;;;;;;4988792;28;96942;-83
2023/08/28 03:57:29;;;;;;;5.35;1.27;;;;;;;;;;4977974;28;96373;-84
2023/08/28 03:59:56;;;;;;;4.40;1.20;;;;;;;;;;4993941;28;92692;-84
2023/08/28 04:02:22;;;;;;;2.65;1.10;;;;;;;;;;4992082;28;94008;-84
2023/08/28 04:04:50;;;;;;;3.55;1.15;;;;;;;;;;4991583;28;93771;-83
2023/08/28 04:07:32;;;;;;;1.75;1.00;;;;;;;;;;4981513;28;93285;-85
2023/08/28 04:10:00;;;;;;;4.05;1.00;;;;;;;;;;4981057;28;96201;-84
2023/08/28 04:12:26;;;;;;;3.65;1.10;;;;;;;;;;4993186;28;92527;-85
2023/08/28 04:14:53;;;;;;;3.03;1.20;;;;;;;;;;4958577;28;95351;-85
2023/08/28 04:17:20;;;;;;;3.90;1.30;;;;;;;;;;4991026;28;98585;-84
2023/08/28 04:19:49;;;;;;;4.22;1.23;;;;;;;;;;4982633;28;92495;-84
2023/08/28 04:22:16;;;;;;;5.60;1.20;;;;;;;;;;4967885;28;95183;-84
2023/08/28 04:24:44;;;;;;;4.55;1.10;;;;;;;;;;4972860;28;92483;-84
2023/08/28 04:27:11;;;;;;;3.47;1.23;;;;;;;;;;4980774;28;95548;-84
2023/08/28 04:29:38;;;;;;;5.57;1.10;;;;;;;;;;4956808;28;96090;-83
2023/08/28 04:32:05;;;;;;;3.90;1.20;;;;;;;;;;4975923;28;92482;-83
2023/08/28 04:34:32;;;;;;;3.85;1.30;;;;;;;;;;4989615;28;92895;-83
2023/08/28 04:36:58;;;;;;;3.45;1.10;;;;;;;;;;4989552;28;93861;-83
2023/08/28 04:39:25;;;;;;;;;;;;;;;;;;4956336;28;93128;-83
2023/08/28 04:41:54;;;;;;;2.53;1.10;;;;;;;;;;4988248;28;106395;-84
2023/08/28 04:44:22;;;;;;;3.92;1.40;;;;;;;;;;4961794;28;92484;-83
2023/08/28 04:46:49;;;;;;;2.45;1.30;;;;;;;;;;4981258;28;94242;-83
2023/08/28 04:49:16;;;;;;;2.67;1.25;;;;;;;;;;4990577;28;93056;-84
2023/08/28 04:51:43;;;;;;;2.38;1.10;;;;;;;;;;4964375;28;92743;-83
2023/08/28 04:54:10;;;;;;;3.20;1.30;;;;;;;;;;4986168;28;93262;-83
2023/08/28 04:56:36;;;;;;;4.20;1.40;;;;;;;;;;4975887;28;95547;-83
2023/08/28 04:59:03;;;;;;;6.32;1.40;;;;;;;;;;4988609;28;91799;-85
2023/08/28 05:01:30;;;;;;;4.55;1.42;;;;;;;;;;4968352;28;94829;-86
2023/08/28 05:03:57;;;;;;;3.60;1.30;;;;;;;;;;4996456;28;93500;-84
2023/08/28 05:06:23;;;;;;;4.07;1.27;;;;;;;;;;4990334;28;94878;-85
2023/08/28 05:08:50;;;;;;;7.53;1.63;;;;;;;;;;4993106;28;93074;-86
2023/08/28 05:11:18;;;;;;;;;;;;;;;;;;4992144;28;92392;-83
2023/08/28 05:13:46;;;;;;;3.40;1.35;;;;;;;;;;4985660;28;93412;-83
2023/08/28 05:16:13;;;;;;;3.30;1.42;;;;;;;;;;4987665;28;93113;-83
2023/08/28 05:18:39;;;;;;;4.22;1.42;;;;;;;;;;5001767;28;92499;-84
2023/08/28 05:21:09;;;;;;;4.57;1.52;;;;;;;;;;4983083;28;93027;-84
2023/08/28 05:23:35;;;;;;;3.45;1.27;;;;;;;;;;4980767;28;95368;-83
2023/08/28 05:26:02;;;;;;;4.45;1.40;;;;;;;;;;4992292;28;92605;-83
2023/08/28 05:28:31;;;;;;;3.60;1.52;;;;;;;;;;4986871;28;95671;-84
2023/08/28 05:30:58;;;;;;;3.65;1.40;;;;;;;;;;4971742;28;95011;-84
2023/08/28 05:33:24;;;;;;;3.95;1.60;;;;;;;;;;4981672;28;97962;-84
2023/08/28 05:35:51;;;;;;;3.53;1.40;;;;;;;;;;4979777;28;94100;-83
2023/08/28 05:38:19;;;;;;;5.47;1.80;;;;;;;;;;4964844;28;92612;-85
2023/08/28 05:40:47;;;;;;;3.50;1.30;;;;;;;;;;4990415;28;93190;-83
2023/08/28 05:43:13;;;;;;;4.25;1.40;;;;;;;;;;4992008;28;93588;-83
2023/08/28 05:45:40;;;;;;;2.00;1.30;;;;;;;;;;4998354;28;92534;-83
2023/08/28 05:48:07;;;;;;;4.22;1.50;;;;;;;;;;4994221;28;91739;-84
2023/08/28 05:50:36;;;;;;;5.20;1.58;;;;;;;;;;4980263;28;92608;-83
2023/08/28 05:53:03;;;;;;;4.70;1.45;;;;;;;;;;4992101;28;93017;-84
2023/08/28 05:55:31;;;;;;;2.30;1.20;;;;;;;;;;4982686;28;97988;-82
2023/08/28 05:57:57;;;;;;;4.13;1.50;;;;;;;;;;4963694;28;92576;-83
2023/08/28 06:00:25;;;;;;;3.92;1.48;;;;;;;;;;4984251;28;95989;-83
2023/08/28 06:02:52;;;;;;;5.13;1.80;;;;;;;;;;4991640;28;93152;-83
2023/08/28 06:05:20;;;;;;;6.90;1.60;;;;;;;;;;4953474;28;92551;-83
2023/08/28 06:07:47;;;;;;;7.93;1.40;;;;;;;;;;4994780;28;92765;-82
2023/08/28 06:10:17;;;;;;;5.53;1.65;;;;;;;;;;4987819;28;93570;-83
2023/08/28 06:12:48;;;;;;;9.48;1.70;;;;;;;;;;4963789;28;96073;-83
2023/08/28 06:15:18;;;;;;;7.43;1.50;;;;;;;;;;4987015;28;93196;-81
2023/08/28 06:17:45;;;;;;;6.93;1.70;;;;;;;;;;4994131;28;92374;-84
2023/08/28 06:20:13;;;;;;;3.80;1.35;;;;;;;;;;4989492;28;95274;-83
2023/08/28 06:22:43;;;;;;;4.90;1.40;;;;;;;;;;4974592;28;96197;-84
2023/08/28 06:25:09;;;;;;;5.05;1.50;;;;;;;;;;4979737;28;92580;-82
2023/08/28 06:27:36;;;;;;;8.20;1.65;;;;;;;;;;4991256;28;93283;-82
2023/08/28 06:30:06;;;;;;;3.05;1.50;;;;;;;;;;4995127;28;93042;-81
2023/08/28 06:32:33;;;;;;;3.67;1.42;;;;;;;;;;4978704;28;94387;-83
2023/08/28 06:35:00;;;;;;;4.78;1.55;;;;;;;;;;4973568;28;93131;-83
2023/08/28 06:37:27;;;;;;;4.05;1.40;;;;;;;;;;4992042;28;91626;-83
2023/08/28 06:39:54;;;;;;;4.75;1.40;;;;;;;;;;4972898;28;94762;-83
2023/08/28 06:42:20;;;;;;;4.85;1.50;;;;;;;;;;4972589;28;93877;-83
2023/08/28 06:44:49;;;;;;;5.35;1.55;;;;;;;;;;4970350;28;94958;-82
2023/08/28 06:47:15;;;;;;;6.10;1.60;;;;;;;;;;4989282;28;95320;-83
2023/08/28 06:49:42;;;;;;;5.60;1.60;;;;;;;;;;4955012;28;93921;-82
2023/08/28 06:52:08;;;;;;;4.80;1.40;;;;;;;;;;4992855;28;92993;-84
2023/08/28 06:54:36;;;;;;;4.80;1.30;;;;;;;;;;4989974;28;93640;-83
2023/08/28 06:57:17;;;;;;;4.75;1.38;;;;;;;;;;4991161;28;92439;-83
2023/08/28 06:59:44;;;;;;;4.10;1.58;;;;;;;;;;4991174;28;93020;-84
2023/08/28 07:02:11;;;;;;;3.97;1.55;;;;;;;;;;4968344;28;95056;-82
2023/08/28 07:04:38;;;;;;;5.35;1.70;;;;;;;;;;4973842;28;93001;-83
2023/08/28 07:07:04;;;;;;;4.88;1.70;;;;;;;;;;4960153;28;92904;-84
2023/08/28 07:09:31;;;;;;;4.97;1.55;;;;;;;;;;4968789;28;95257;-84
2023/08/28 07:11:58;;;;;;;2.95;1.38;;;;;;;;;;4979272;28;92749;-83
2023/08/28 07:14:25;;;;;;;5.95;1.33;;;;;;;;;;4945325;28;94087;-82
2023/08/28 07:16:52;;;;;;;3.05;1.50;;;;;;;;;;4959766;28;92589;-83
2023/08/28 07:19:18;;;;;;;4.72;1.52;;;;;;;;;;4979079;28;93024;-82
2023/08/28 07:21:45;;;;;;;3.63;1.33;;;;;;;;;;4989106;28;94121;-82
2023/08/28 07:24:11;;;;;;;2.90;1.50;;;;;;;;;;4972897;28;92794;-83
2023/08/28 07:26:38;;;;;;;3.97;1.30;;;;;;;;;;4985872;28;93305;-83
2023/08/28 07:29:04;;;;;;;4.40;1.33;;;;;;;;;;5000967;28;92591;-84
2023/08/28 07:31:32;;;;;;;2.35;1.10;;;;;;;;;;4985159;28;92814;-84
2023/08/28 07:34:03;;;;;;;5.68;1.45;;;;;;;;;;4985312;28;94879;-84
2023/08/28 07:36:30;;;;;;;3.65;1.20;;;;;;;;;;4968032;28;93031;-82
2023/08/28 07:38:57;;;;;;;4.28;1.70;;;;;;;;;;4973897;28;93145;-83
2023/08/28 07:41:23;;;;;;;4.63;1.70;;;;;;;;;;4969117;28;93212;-82
2023/08/28 07:43:52;;;;;;;4.72;1.92;;;;;;;;;;4968214;28;92769;-83
2023/08/28 07:46:19;;;;;;;4.55;1.58;;;;;;;;;;4972341;28;93248;-83
2023/08/28 07:48:45;;;;;;;4.82;1.65;;;;;;;;;;4971256;28;96303;-83
2023/08/28 07:51:12;;;;;;;4.45;1.70;;;;;;;;;;4990010;28;91695;-83
2023/08/28 07:53:39;;;;;;;5.32;1.80;;;;;;;;;;4989304;28;92864;-83
2023/08/28 07:56:06;;;;;;;4.22;1.50;;;;;;;;;;4972019;28;93403;-83
2023/08/28 07:58:33;;;;;;;3.17;1.48;;;;;;;;;;4987885;28;94829;-83
2023/08/28 08:00:59;;;;;;;3.88;1.60;;;;;;;;;;4971652;28;95282;-83
2023/08/28 08:03:27;;;;;;;5.15;2.00;;;;;;;;;;4990253;28;92777;-82
2023/08/28 08:05:54;;;;;;;3.72;1.60;;;;;;;;;;4989948;28;92473;-83
2023/08/28 08:08:21;;;;;;;5.90;1.52;;;;;;;;;;4966040;28;94106;-82
2023/08/28 08:10:47;;;;;;;2.20;1.13;;;;;;;;;;4972214;28;92497;-82
2023/08/28 08:13:15;;;;;;;2.67;1.20;;;;;;;;;;4977417;28;93412;-82
2023/08/28 08:15:41;;;;;;;;;;;;;;;;;;4990826;28;92351;-83
2023/08/28 08:18:08;;;;;;;3.13;1.40;;;;;;;;;;4994545;28;95221;-83
2023/08/28 08:20:34;;;;;;;2.97;1.30;;;;;;;;;;4983157;28;93737;-83
2023/08/28 08:23:01;;;;;;;4.60;1.30;;;;;;;;;;4975717;28;95429;-81
2023/08/28 08:25:28;;;;;;;3.65;1.30;;;;;;;;;;4992260;28;95259;-82
2023/08/28 08:27:54;;;;;;;4.20;1.30;;;;;;;;;;4973896;28;93784;-83
2023/08/28 08:30:21;;;;;;;2.88;1.15;;;;;;;;;;4994734;28;94157;-82
2023/08/28 08:32:48;;;;;;;2.80;1.20;;;;;;;;;;4974173;28;96574;-82
2023/08/28 08:35:14;;;;;;;3.90;1.10;;;;;;;;;;4992446;28;92955;-83
2023/08/28 08:37:41;;;;;;;2.65;1.20;;;;;;;;;;4975511;28;92566;-82
2023/08/28 08:40:10;;;;;;;2.55;1.17;;;;;;;;;;4978106;28;92740;-82
2023/08/28 08:42:37;;;;;;;1.73;1.00;;;;;;;;;;4974458;28;93100;-83
2023/08/28 08:45:04;;;;;;;3.25;1.08;;;;;;;;;;4992958;28;92825;-81
2023/08/28 08:47:31;;;;;;;2.78;1.10;;;;;;;;;;4990459;28;95489;-81
2023/08/28 08:49:59;;;;;;;2.80;1.20;;;;;;;;;;4992188;28;92845;-80
2023/08/28 08:52:26;;;;;;;2.70;1.10;;;;;;;;;;4968621;28;93417;-84
2023/08/28 08:54:56;;;;;;;1.55;0.93;;;;;;;;;;4992334;28;93377;-80
2023/08/28 08:57:26;;;;;;;2.55;1.00;;;;;;;;;;4974023;28;92600;-83
2023/08/28 08:59:54;;;;;;;2.92;1.20;;;;;;;;;;4974862;28;92972;-82
2023/08/28 09:02:21;;;;;;;2.78;1.02;;;;;;;;;;4995199;28;93042;-83
2023/08/28 09:04:48;;;;;;;;;;;;;;;;;;4993144;28;94019;-83
2023/08/28 09:07:16;;;;;;;2.17;1.10;;;;;;;;;;4992252;28;108360;-79
2023/08/28 09:09:42;;;;;;;3.45;1.13;;;;;;;;;;4992282;28;92466;-82
2023/08/28 09:12:09;;;;;;;2.35;0.90;;;;;;;;;;4989643;28;95176;-83
2023/08/28 09:14:36;;;;;;;2.65;1.13;;;;;;;;;;4974057;28;93316;-82
2023/08/28 09:17:06;;;;;;;2.20;1.00;;;;;;;;;;4973647;28;92552;-81
2023/08/28 09:19:34;;;;;;;3.35;0.90;;;;;;;;;;4978131;28;93342;-82
2023/08/28 09:22:03;;;;;;;3.33;0.95;;;;;;;;;;4989577;28;93847;-83
2023/08/28 09:24:30;;;;;;;1.67;0.80;;;;;;;;;;4990016;28;92627;-82
2023/08/28 09:26:56;;;;;;;2.03;1.00;;;;;;;;;;4991682;28;93121;-82
2023/08/28 09:29:23;;;;;;;2.65;1.00;;;;;;;;;;4976773;28;91670;-81
2023/08/28 09:31:51;;;;;;;2.47;1.08;;;;;;;;;;4959046;28;94809;-83
2023/08/28 09:34:20;;;;;;;2.30;0.90;;;;;;;;;;4974907;28;94294;-83
2023/08/28 09:36:46;;;;;;;1.80;1.00;;;;;;;;;;4952137;28;94962;-82
2023/08/28 09:39:13;;;;;;;2.90;1.00;;;;;;;;;;4974693;28;95070;-83
2023/08/28 09:41:43;;;;;;;2.30;0.82;;;;;;;;;;4985408;28;93243;-80
2023/08/28 09:44:10;;;;;;;2.70;1.00;;;;;;;;;;4995213;28;93085;-83
2023/08/28 09:46:37;;;;;;;2.53;0.80;;;;;;;;;;4969868;28;93115;-83
2023/08/28 09:49:04;;;;;;;2.45;0.90;;;;;;;;;;4986092;28;92924;-82
2023/08/28 09:51:31;;;;;;;;;;;;;;;;;;4989692;28;92740;-82
2023/08/28 09:54:01;;;;;;;1.77;0.90;;;;;;;;;;4993157;28;92589;-82
2023/08/28 09:56:31;;;;;;;1.67;0.80;;;;;;;;;;4965506;28;92625;-83
2023/08/28 09:58:58;;;;;;;3.20;0.90;;;;;;;;;;4973555;28;92546;-83
2023/08/28 10:01:27;;;;;;;2.60;0.80;;;;;;;;;;4951960;28;96225;-85
2023/08/28 10:03:54;;;;;;;1.70;0.88;;;;;;;;;;4971376;28;92499;-84
2023/08/28 10:06:22;;;;;;;2.10;0.80;;;;;;;;;;4975059;28;93315;-85
2023/08/28 10:08:49;;;;;;;3.00;0.90;;;;;;;;;;4969915;28;92747;-83
2023/08/28 10:11:16;;;;;;;3.20;1.00;;;;;;;;;;4990888;28;92710;-84
2023/08/28 10:13:42;;;;;;;2.22;0.93;;;;;;;;;;4972425;28;96036;-84
2023/08/28 10:16:20;;;;;;;2.88;0.80;;;;;;;;;;4972797;28;92459;-82
2023/08/28 10:18:54;;;;;;;5.40;1.15;;;;;;;;;;4991878;28;93919;-84
2023/08/28 10:21:21;;;;;;;3.65;1.00;;;;;;;;;;4989946;28;92977;-84
2023/08/28 10:23:49;;;;;;;1.23;0.90;;;;;;;;;;4990826;28;92594;-84
2023/08/28 10:26:16;;;;;;;2.13;0.88;;;;;;;;;;4989676;28;96492;-84
2023/08/28 10:28:42;;;;;;;2.55;0.90;;;;;;;;;;4994956;28;93035;-84
2023/08/28 10:31:10;;;;;;;2.50;1.00;;;;;;;;;;4992614;28;93112;-83
2023/08/28 10:33:36;;;;;;;;;;;;;;;;;;4975308;28;93187;-84
2023/08/28 10:36:07;;;;;;;1.75;0.90;;;;;;;;;;4997800;28;92589;-83
2023/08/28 10:38:34;;;;;;;3.42;1.05;;;;;;;;;;4988859;28;92621;-84
2023/08/28 10:41:05;;;;;;;3.00;0.90;;;;;;;;;;4980582;28;93106;-86
2023/08/28 10:43:32;;;;;;;5.22;1.20;;;;;;;;;;4986187;28;91759;-87
2023/08/28 10:46:00;;;;;;;7.15;1.17;;;;;;;;;;4980688;28;92459;-84
2023/08/28 10:48:27;;;;;;;3.97;1.10;;;;;;;;;;4990134;28;93099;-83
2023/08/28 10:50:57;;;;;;;4.32;1.00;;;;;;;;;;4994397;28;95083;-83
2023/08/28 10:53:24;;;;;;;5.40;1.08;;;;;;;;;;4958574;28;96199;-83
2023/08/28 10:55:51;;;;;;;;;;;;;;;;;;4990919;28;93036;-84
2023/08/28 10:58:18;;;;;;;5.85;1.10;;;;;;;;;;4972928;28;110079;-81
2023/08/28 11:01:12;;;;;;;2.35;0.93;;;;;;;;;;4973334;28;93295;-83
2023/08/28 11:03:51;;;;;;;5.93;1.10;;;;;;;;;;4958143;28;92960;-83
2023/08/28 11:06:34;;;;;;;3.55;1.10;;;;;;;;;;4973844;28;92946;-82
2023/08/28 11:09:19;;;;;;;3.95;1.08;;;;;;;;;;4981745;28;93388;-82
2023/08/28 11:11:46;;;;;;;2.80;1.05;;;;;;;;;;4975112;28;92859;-81
2023/08/28 11:14:15;;;;;;;3.47;1.05;;;;;;;;;;4982088;28;93314;-83
2023/08/28 11:16:43;;;;;;;1.67;0.75;;;;;;;;;;4986961;28;96358;-82
2023/08/28 11:19:09;;;;;;;2.08;1.00;;;;;;;;;;4987071;28;95741;-81
2023/08/28 11:21:42;;;;;;;3.88;1.10;;;;;;;;;;4984776;28;92680;-81
2023/08/28 11:24:24;;;;;;;2.15;0.98;;;;;;;;;;4993303;28;92943;-81
2023/08/28 11:26:52;;;;;;;3.20;1.00;;;;;;;;;;4975324;28;92450;-81
2023/08/28 11:29:25;;;;;;;3.22;0.98;;;;;;;;;;4986972;28;93154;-82
2023/08/28 11:31:51;;;;;;;2.17;1.08;;;;;;;;;;5009644;28;93961;-82
2023/08/28 11:34:18;;;;;;;3.60;1.00;;;;;;;;;;5006913;28;91800;-81
2023/08/28 11:36:47;;;;;;;2.60;0.80;;;;;;;;;;5006184;28;92448;-81
2023/08/28 11:39:24;;;;;;;1.33;0.80;;;;;;;;;;4992186;28;92637;-83
2023/08/28 11:41:51;;;;;;;2.10;0.80;;;;;;;;;;5012135;28;94769;-83
2023/08/28 11:44:17;;;;;;;1.50;0.77;;;;;;;;;;5006513;28;92977;-83
2023/08/28 11:46:44;;;;;;;2.00;0.80;;;;;;;;;;5007742;28;94057;-84
2023/08/28 11:49:12;;;;;;;3.00;0.80;;;;;;;;;;4998635;28;93207;-83
2023/08/28 11:51:39;;;;;;;3.10;0.82;;;;;;;;;;4996135;28;92533;-82
2023/08/28 11:54:06;;;;;;;3.55;0.90;;;;;;;;;;4977556;28;94604;-83
2023/08/28 11:56:33;;;;;;;1.52;0.90;;;;;;;;;;4980370;28;93175;-83
2023/08/28 11:58:59;;;;;;;;;;;;;;;;;;4975332;28;93557;-82
2023/08/28 12:01:27;;;;;;;5.68;1.05;;;;;;;;;;5004214;28;112494;-82
2023/08/28 12:04:04;;;;;;;1.73;0.90;;;;;;;;;;4951826;28;93087;-82
2023/08/28 12:06:39;;;;;;;2.33;0.90;;;;;;;;;;4995954;28;94834;-82
2023/08/28 12:09:09;;;;;;;2.95;0.90;;;;;;;;;;4994513;28;93146;-81
2023/08/28 12:11:35;;;;;;;1.45;0.80;;;;;;;;;;4982240;28;92481;-83
2023/08/28 12:14:15;;;;;;;3.42;0.98;;;;;;;;;;4993454;28;92966;-82
2023/08/28 12:16:42;;;;;;;2.70;0.90;;;;;;;;;;4982910;28;93066;-83
2023/08/28 12:19:08;;;;;;;2.38;0.95;;;;;;;;;;4956990;28;92622;-83
2023/08/28 12:21:38;;;;;;;2.85;0.82;;;;;;;;;;4994794;28;94858;-83
2023/08/28 12:24:09;;;;;;;3.65;0.93;;;;;;;;;;4988011;28;91946;-82
2023/08/28 12:26:36;;;;;;;2.13;1.10;;;;;;;;;;4989739;28;92565;-84
2023/08/28 12:29:03;;;;;;;4.22;1.40;;;;;;;;;;4971239;28;96196;-84
2023/08/28 12:31:32;;;;;;;5.60;1.85;;;;;;;;;;4974383;28;95548;-85
2023/08/28 12:34:08;;;;;;;4.85;1.80;;;;;;;;;;4989936;28;96057;-84
2023/08/28 12:36:39;;;;;;;5.43;1.65;;;;;;;;;;4979560;28;93018;-85
2023/08/28 12:39:09;;;;;;;3.72;1.63;;;;;;;;;;4990998;28;92551;-85
2023/08/28 12:41:48;;;;;;;4.78;1.50;;;;;;;;;;4978954;28;92833;-84
2023/08/28 12:44:15;;;;;;;4.57;1.67;;;;;;;;;;4970086;28;94010;-84
2023/08/28 12:46:42;;;;;;;2.90;1.25;;;;;;;;;;4987802;28;93024;-85
2023/08/28 12:49:09;;;;;;;2.22;1.30;;;;;;;;;;4951706;28;92651;-83
2023/08/28 12:51:35;;;;;;;;;;;;;;;;;;4974911;28;92651;-85
2023/08/28 12:54:02;;;;;;;3.22;1.20;;;;;;;;;;4991150;28;105349;-84
2023/08/28 12:56:28;;;;;;;2.80;1.05;;;;;;;;;;4991623;28;95512;-85
2023/08/28 12:58:55;;;;;;;1.98;1.02;;;;;;;;;;4990441;28;92473;-83
2023/08/28 13:01:22;;;;;;;4.53;1.20;;;;;;;;;;4989869;28;92608;-84
2023/08/28 13:03:48;;;;;;;3.72;0.90;;;;;;;;;;4974768;28;92990;-84
2023/08/28 13:06:15;;;;;;;4.15;1.17;;;;;;;;;;4966572;28;94205;-84
2023/08/28 13:08:41;;;;;;;1.80;0.98;;;;;;;;;;4972751;28;93571;-83
2023/08/28 13:11:08;;;;;;;1.50;0.75;;;;;;;;;;4953309;28;92545;-84
2023/08/28 13:13:35;;;;;;;1.80;0.73;;;;;;;;;;4973532;28;93272;-84
2023/08/28 13:16:02;;;;;;;1.58;0.80;;;;;;;;;;4992509;28;93296;-84
2023/08/28 13:18:28;;;;;;;2.88;0.90;;;;;;;;;;4993593;28;92327;-84
2023/08/28 13:20:55;;;;;;;1.75;0.63;;;;;;;;;;4979093;28;94949;-83
2023/08/28 13:23:21;;;;;;;2.75;0.80;;;;;;;;;;4994396;28;93163;-84
2023/08/28 13:25:49;;;;;;;2.78;0.90;;;;;;;;;;5003382;28;92456;-84
2023/08/28 13:28:16;;;;;;;2.80;0.90;;;;;;;;;;4992918;28;92436;-84
2023/08/28 13:30:44;;;;;;;1.83;0.80;;;;;;;;;;4986087;28;92590;-85
2023/08/28 13:33:10;;;;;;;3.60;1.10;;;;;;;;;;4982524;28;92926;-84
2023/08/28 13:35:37;;;;;;;2.70;0.90;;;;;;;;;;4991836;28;92630;-84
2023/08/28 13:38:06;;;;;;;1.83;0.90;;;;;;;;;;4992112;28;92177;-84
2023/08/28 13:40:33;;;;;;;3.65;0.98;;;;;;;;;;4974728;28;96050;-84
2023/08/28 13:43:02;;;;;;;3.25;0.90;;;;;;;;;;4994266;28;93090;-85
2023/08/28 13:45:29;;;;;;;3.03;1.00;;;;;;;;;;5007383;28;95141;-84
2023/08/28 13:47:56;;;;;;;3.00;0.90;;;;;;;;;;4986957;28;93048;-85
2023/08/28 13:50:23;;;;;;;4.88;0.90;;;;;;;;;;4984829;28;92478;-85
2023/08/28 13:52:51;;;;;;;3.22;1.00;;;;;;;;;;4991766;28;92825;-85
2023/08/28 13:55:19;;;;;;;3.97;0.90;;;;;;;;;;4992473;28;93066;-85
2023/08/28 13:57:46;;;;;;;3.80;0.90;;;;;;;;;;4991964;28;92432;-84
2023/08/28 14:00:14;;;;;;;4.07;0.90;;;;;;;;;;4991820;28;92873;-84
2023/08/28 14:02:42;;;;;;;2.15;1.00;;;;;;;;;;4974140;28;94265;-84
2023/08/28 14:05:12;;;;;;;5.03;0.90;;;;;;;;;;4992074;28;92593;-85
2023/08/28 14:07:39;;;;;;;1.42;0.75;;;;;;;;;;4985363;28;93310;-85
2023/08/28 14:10:06;;;;;;;;;;;;;;;;;;4986413;28;94937;-84
2023/08/28 14:12:32;;;;;;;2.40;0.77;;;;;;;;;;4993419;28;94758;-83
2023/08/28 14:14:59;;;;;;;5.13;1.30;;;;;;;;;;4990920;28;94319;-83
2023/08/28 14:17:26;;;;;;;5.32;1.10;;;;;;;;;;4997174;28;92846;-83
2023/08/28 14:19:53;;;;;;;2.60;1.10;;;;;;;;;;4973532;28;93165;-83
2023/08/28 14:22:19;;;;;;;3.80;0.95;;;;;;;;;;4986944;28;93763;-82
2023/08/28 14:24:46;;;;;;;3.50;0.90;;;;;;;;;;4992047;28;92856;-83
2023/08/28 14:27:12;;;;;;;1.88;0.88;;;;;;;;;;4991691;28;92873;-83
2023/08/28 14:29:39;;;;;;;2.38;1.00;;;;;;;;;;4994078;28;93121;-82
2023/08/28 14:32:07;;;;;;;2.60;1.00;;;;;;;;;;4972463;28;93076;-82
2023/08/28 14:34:34;;;;;;;2.58;1.02;;;;;;;;;;4989711;28;95548;-84
2023/08/28 14:37:00;;;;;;;3.42;1.00;;;;;;;;;;4973084;28;92865;-83
2023/08/28 14:39:27;;;;;;;3.22;0.90;;;;;;;;;;4974303;28;92809;-83
2023/08/28 14:41:53;;;;;;;2.85;1.00;;;;;;;;;;4991017;28;93663;-82
2023/08/28 14:44:20;;;;;;;2.45;0.80;;;;;;;;;;4991304;28;92897;-82
2023/08/28 14:46:46;;;;;;;2.85;1.00;;;;;;;;;;4990540;28;92999;-81
2023/08/28 14:49:14;;;;;;;3.72;1.15;;;;;;;;;;4971807;28;95807;-83
2023/08/28 14:51:41;;;;;;;3.78;1.00;;;;;;;;;;4976119;28;91773;-81